Time;durP1;ratioP1;P1;durP2;ratioP2;P2;SDS_P1;SDS_P2;PMS_P1;PMS_P2;Temp;Humidity;BMP_temperature;BMP_pressure;BME280_temperature;BME280_humidity;BME280_pressure;Samples;Min_cycle;Max_cycle;Signal;HPM_P1;HPM_P2
2022/08/16 00:00:58;;;;;;;;;;;22.60;99.90;;;;;;5039029;28;19954;-38
2022/08/16 00:03:24;;;;;;;;;;;22.60;99.90;;;;;;5039009;28;19917;-36
2022/08/16 00:06:08;;;;;;;;;;;22.60;99.90;;;;;;5039794;28;19912;-37
2022/08/16 00:08:33;;;;;;;;;;;22.60;99.90;;;;;;5042849;28;19921;-37
2022/08/16 00:10:59;;;;;;;;;;;22.60;99.90;;;;;;5037799;28;19920;-39
2022/08/16 00:13:24;;;;;;;;;;;22.60;99.90;;;;;;5039638;28;20031;-40
2022/08/16 00:15:50;;;;;;;;;;;22.60;99.90;;;;;;5036382;28;19916;-41
2022/08/16 00:18:16;;;;;;;;;;;22.50;99.90;;;;;;5039729;28;19912;-36
2022/08/16 00:20:43;;;;;;;;;;;22.50;99.90;;;;;;5046178;28;19912;-38
2022/08/16 00:23:08;;;;;;;;;;;22.50;99.90;;;;;;5030620;28;20388;-36
2022/08/16 00:25:34;;;;;;;;;;;22.50;99.90;;;;;;5041089;28;19924;-36
2022/08/16 00:28:00;;;;;;;;;;;22.50;99.90;;;;;;5043439;28;20346;-37
2022/08/16 00:30:26;;;;;;;;;;;22.50;99.90;;;;;;5033701;28;20396;-36
2022/08/16 00:32:53;;;;;;;;;;;22.50;99.90;;;;;;5034998;28;20218;-38
2022/08/16 00:35:21;;;;;;;;;;;22.50;99.90;;;;;;5037910;28;19924;-36
2022/08/16 00:37:47;;;;;;;;;;;22.50;99.90;;;;;;5037109;28;20562;-31
2022/08/16 00:40:14;;;;;;;;;;;22.50;99.90;;;;;;5039444;28;19921;-39
2022/08/16 00:42:40;;;;;;;;;;;22.40;99.90;;;;;;5045751;28;19913;-39
2022/08/16 00:45:28;;;;;;;;;;;22.50;99.90;;;;;;5043205;28;19916;-37
2022/08/16 00:47:54;;;;;;;;;;;22.40;99.90;;;;;;5039479;28;19920;-34
2022/08/16 00:50:21;;;;;;;;;;;22.40;99.90;;;;;;5039509;28;20369;-37
2022/08/16 00:52:47;;;;;;;;;;;22.40;99.90;;;;;;5036477;28;20446;-37
2022/08/16 00:55:12;;;;;;;;;;;22.40;99.90;;;;;;5038280;28;19917;-37
2022/08/16 00:57:38;;;;;;;;;;;22.30;99.90;;;;;;5037357;28;19939;-39
2022/08/16 01:00:05;;;;;;;;;;;22.40;99.90;;;;;;5042239;28;19956;-40
2022/08/16 01:02:31;;;;;;;;;;;22.40;99.90;;;;;;5043534;28;20408;-40
2022/08/16 01:04:56;;;;;;;;;;;22.40;99.90;;;;;;5043608;28;20167;-39
2022/08/16 01:07:22;;;;;;;;;;;22.30;99.90;;;;;;5040007;28;19928;-35
2022/08/16 01:09:47;;;;;;;;;;;22.30;99.90;;;;;;5044426;28;20557;-35
2022/08/16 01:12:15;;;;;;;;;;;22.30;99.90;;;;;;5043511;28;19913;-35
2022/08/16 01:14:46;;;;;;;;;;;22.30;99.90;;;;;;5040407;28;19924;-36
2022/08/16 01:17:12;;;;;;;;;;;22.20;99.90;;;;;;5042420;28;19935;-49
2022/08/16 01:19:42;;;;;;;;;;;22.20;99.90;;;;;;5041445;28;19913;-36
2022/08/16 01:22:28;;;;;;;;;;;22.20;99.90;;;;;;5044940;28;19913;-34
2022/08/16 01:24:56;;;;;;;;;;;22.20;99.90;;;;;;5042995;28;20346;-37
2022/08/16 01:27:21;;;;;;;;;;;22.20;99.90;;;;;;5043230;28;20032;-36
2022/08/16 01:29:54;;;;;;;;;;;22.20;99.90;;;;;;5038217;28;20423;-40
2022/08/16 01:32:19;;;;;;;;;;;22.20;99.90;;;;;;5043294;28;20094;-35
2022/08/16 01:34:45;;;;;;;;;;;22.10;99.90;;;;;;5046362;28;20369;-38
2022/08/16 01:37:11;;;;;;;;;;;22.20;99.90;;;;;;5046386;28;19917;-42
2022/08/16 01:39:37;;;;;;;;;;;22.20;99.90;;;;;;5047287;28;20399;-37
2022/08/16 01:42:04;;;;;;;;;;;22.20;99.90;;;;;;5049010;28;19921;-39
2022/08/16 01:44:29;;;;;;;;;;;22.10;99.90;;;;;;5042209;28;19917;-33
2022/08/16 01:46:56;;;;;;;;;;;22.20;99.90;;;;;;5045042;28;19920;-38
2022/08/16 01:49:23;;;;;;;;;;;22.10;99.90;;;;;;5056578;28;19919;-36
2022/08/16 01:51:51;;;;;;;;;;;22.10;99.90;;;;;;5049170;28;19913;-34
2022/08/16 01:54:17;;;;;;;;;;;22.10;99.90;;;;;;5046621;28;19913;-40
2022/08/16 01:56:43;;;;;;;;;;;22.10;99.90;;;;;;5050761;28;20474;-42
2022/08/16 01:59:10;;;;;;;;;;;22.10;99.90;;;;;;5044714;28;20003;-34
2022/08/16 02:01:35;;;;;;;;;;;22.10;99.90;;;;;;5044230;28;19913;-35
2022/08/16 02:04:01;;;;;;;;;;;22.10;99.90;;;;;;5048294;28;19917;-36
2022/08/16 02:06:27;;;;;;;;;;;22.00;99.90;;;;;;5041318;28;20007;-36
2022/08/16 02:08:53;;;;;;;;;;;22.00;99.90;;;;;;5048788;28;20031;-36
2022/08/16 02:11:20;;;;;;;;;;;22.00;99.90;;;;;;5049814;28;19913;-34
2022/08/16 02:13:45;;;;;;;;;;;22.00;99.90;;;;;;5045271;28;19913;-33
2022/08/16 02:16:11;;;;;;;;;;;22.00;99.90;;;;;;5042299;28;20365;-37
2022/08/16 02:18:37;;;;;;;;;;;21.90;99.90;;;;;;5048254;28;19920;-33
2022/08/16 02:21:03;;;;;;;;;;;21.90;99.90;;;;;;5048064;28;20380;-34
2022/08/16 02:23:28;;;;;;;;;;;22.00;99.90;;;;;;5046245;28;20459;-37
2022/08/16 02:25:54;;;;;;;;;;;22.00;99.90;;;;;;5049347;28;19913;-32
2022/08/16 02:28:21;;;;;;;;;;;22.00;99.90;;;;;;5039354;28;19971;-35
2022/08/16 02:30:46;;;;;;;;;;;21.90;99.90;;;;;;5045136;28;19939;-36
2022/08/16 02:33:12;;;;;;;;;;;21.90;99.90;;;;;;5042100;28;19913;-34
2022/08/16 02:35:38;;;;;;;;;;;21.90;99.90;;;;;;5048691;28;19909;-34
2022/08/16 02:38:03;;;;;;;;;;;21.90;99.90;;;;;;5045963;28;19967;-34
2022/08/16 02:40:29;;;;;;;;;;;21.80;99.90;;;;;;5046749;28;19972;-33
2022/08/16 02:42:54;;;;;;;;;;;21.80;99.90;;;;;;5045910;28;19921;-40
2022/08/16 02:45:21;;;;;;;;;;;21.80;99.90;;;;;;5044479;28;20028;-33
2022/08/16 02:47:47;;;;;;;;;;;21.70;99.90;;;;;;5047851;28;19940;-36
2022/08/16 02:50:13;;;;;;;;;;;21.70;99.90;;;;;;5048984;28;19963;-34
2022/08/16 02:52:38;;;;;;;;;;;21.70;99.90;;;;;;5047552;28;19920;-37
2022/08/16 02:55:04;;;;;;;;;;;21.70;99.90;;;;;;5045661;28;19913;-32
2022/08/16 02:57:30;;;;;;;;;;;21.60;99.90;;;;;;5048497;28;20000;-35
2022/08/16 02:59:55;;;;;;;;;;;21.60;99.90;;;;;;5047875;28;20003;-35
2022/08/16 03:02:21;;;;;;;;;;;21.60;99.90;;;;;;5045656;28;20075;-35
2022/08/16 03:04:46;;;;;;;;;;;21.60;99.90;;;;;;5043092;28;20391;-43
2022/08/16 03:07:13;;;;;;;;;;;21.60;99.90;;;;;;5047479;28;19912;-41
2022/08/16 03:09:39;;;;;;;;;;;21.50;99.90;;;;;;5048649;28;20392;-42
2022/08/16 03:12:05;;;;;;;;;;;21.50;99.90;;;;;;5048305;28;20383;-35
2022/08/16 03:14:31;;;;;;;;;;;21.50;99.90;;;;;;5046388;28;19916;-35
2022/08/16 03:16:57;;;;;;;;;;;21.50;99.90;;;;;;5048836;28;19951;-36
2022/08/16 03:19:23;;;;;;;;;;;21.50;99.90;;;;;;5048039;28;19956;-37
2022/08/16 03:21:48;;;;;;;;;;;21.40;99.90;;;;;;5046745;28;20312;-32
2022/08/16 03:24:14;;;;;;;;;;;21.40;99.90;;;;;;5048056;28;19925;-38
2022/08/16 03:26:39;;;;;;;;;;;21.40;99.90;;;;;;5048706;28;19912;-39
2022/08/16 03:29:05;;;;;;;;;;;21.40;99.90;;;;;;5040777;28;20383;-38
2022/08/16 03:31:30;;;;;;;;;;;21.40;99.90;;;;;;5048710;28;19967;-38
2022/08/16 03:33:56;;;;;;;;;;;21.30;99.90;;;;;;5047945;28;19996;-36
2022/08/16 03:36:21;;;;;;;;;;;21.30;99.90;;;;;;5047825;28;19919;-39
2022/08/16 03:38:47;;;;;;;;;;;21.20;99.90;;;;;;5047245;28;20356;-38
2022/08/16 03:41:12;;;;;;;;;;;21.20;99.90;;;;;;5047332;28;20285;-35
2022/08/16 03:43:38;;;;;;;;;;;21.20;99.90;;;;;;5040617;28;19923;-36
2022/08/16 03:46:03;;;;;;;;;;;21.20;99.90;;;;;;5047952;28;20130;-35
2022/08/16 03:48:32;;;;;;;;;;;21.20;99.90;;;;;;5048123;28;20024;-40
2022/08/16 03:50:58;;;;;;;;;;;21.10;99.90;;;;;;5046907;28;20192;-39
2022/08/16 03:53:24;;;;;;;;;;;21.10;99.90;;;;;;5040860;28;19974;-35
2022/08/16 03:55:50;;;;;;;;;;;21.10;99.90;;;;;;5049047;28;19959;-38
2022/08/16 03:58:16;;;;;;;;;;;21.10;99.90;;;;;;5052453;28;19916;-38
2022/08/16 04:00:41;;;;;;;;;;;21.00;99.90;;;;;;5045360;28;20003;-38
2022/08/16 04:03:07;;;;;;;;;;;21.00;99.90;;;;;;5044779;28;19913;-37
2022/08/16 04:05:36;;;;;;;;;;;21.10;99.90;;;;;;5043852;28;19920;-39
2022/08/16 04:08:03;;;;;;;;;;;21.10;99.90;;;;;;5043003;28;20387;-38
2022/08/16 04:10:29;;;;;;;;;;;21.00;99.90;;;;;;5047280;28;19912;-36
2022/08/16 04:12:55;;;;;;;;;;;21.00;99.90;;;;;;5043873;28;20022;-38
2022/08/16 04:15:21;;;;;;;;;;;21.00;99.90;;;;;;5048611;28;19909;-38
2022/08/16 04:17:46;;;;;;;;;;;21.00;99.90;;;;;;5044276;28;19953;-47
2022/08/16 04:20:13;;;;;;;;;;;21.00;99.90;;;;;;5046594;28;20392;-37
2022/08/16 04:22:39;;;;;;;;;;;21.00;99.90;;;;;;5044963;28;19928;-41
2022/08/16 04:25:05;;;;;;;;;;;21.00;99.90;;;;;;5048493;28;19913;-38
2022/08/16 04:27:31;;;;;;;;;;;20.90;99.90;;;;;;5057629;28;19913;-39
2022/08/16 04:29:57;;;;;;;;;;;21.10;99.90;;;;;;5048783;28;20007;-38
2022/08/16 04:32:23;;;;;;;;;;;21.00;99.90;;;;;;5049019;28;20163;-40
2022/08/16 04:34:48;;;;;;;;;;;21.00;99.90;;;;;;5039796;28;19959;-37
2022/08/16 04:37:14;;;;;;;;;;;21.00;99.90;;;;;;5044841;28;19928;-42
2022/08/16 04:39:39;;;;;;;;;;;21.00;99.90;;;;;;5048342;28;19915;-40
2022/08/16 04:42:05;;;;;;;;;;;21.00;99.90;;;;;;5046947;28;20392;-32
2022/08/16 04:44:31;;;;;;;;;;;20.90;99.90;;;;;;5046511;28;19928;-38
2022/08/16 04:46:57;;;;;;;;;;;21.00;99.90;;;;;;5047200;28;20323;-33
2022/08/16 04:49:23;;;;;;;;;;;21.00;99.90;;;;;;5044833;28;19959;-35
2022/08/16 04:51:48;;;;;;;;;;;21.00;99.90;;;;;;5043485;28;19946;-34
2022/08/16 04:54:14;;;;;;;;;;;21.00;99.90;;;;;;5045712;28;20320;-39
2022/08/16 04:56:39;;;;;;;;;;;21.00;99.90;;;;;;5043801;28;19913;-54
2022/08/16 04:59:07;;;;;;;;;;;20.90;99.90;;;;;;5044099;28;20198;-40
2022/08/16 05:01:33;;;;;;;;;;;21.00;99.90;;;;;;5029102;28;19920;-36
2022/08/16 05:03:58;;;;;;;;;;;21.00;99.90;;;;;;5039377;28;20484;-41
2022/08/16 05:06:24;;;;;;;;;;;21.00;99.90;;;;;;5046811;28;19916;-37
2022/08/16 05:08:49;;;;;;;;;;;20.90;99.90;;;;;;5049972;28;20403;-38
2022/08/16 05:11:15;;;;;;;;;;;20.90;99.90;;;;;;5050519;28;19917;-37
2022/08/16 05:13:42;;;;;;;;;;;21.00;99.90;;;;;;5048360;28;19956;-35
2022/08/16 05:16:12;;;;;;;;;;;20.90;99.90;;;;;;5050577;28;20614;-31
2022/08/16 05:18:38;;;;;;;;;;;20.90;99.90;;;;;;5036439;28;20435;-30
2022/08/16 05:21:03;;;;;;;;;;;20.90;99.90;;;;;;5049640;28;19913;-37
2022/08/16 05:23:29;;;;;;;;;;;20.90;99.90;;;;;;5050614;28;19920;-35
2022/08/16 05:25:54;;;;;;;;;;;20.90;99.90;;;;;;5050104;28;20410;-36
2022/08/16 05:28:20;;;;;;;;;;;20.90;99.90;;;;;;5050035;28;19948;-30
2022/08/16 05:30:45;;;;;;;;;;;21.00;99.90;;;;;;5048223;28;20817;-35
2022/08/16 05:33:11;;;;;;;;;;;21.00;99.90;;;;;;5050646;28;19913;-30
2022/08/16 05:35:37;;;;;;;;;;;21.00;99.90;;;;;;5051000;28;19913;-33
2022/08/16 05:38:02;;;;;;;;;;;21.00;99.90;;;;;;5049912;28;19982;-37
2022/08/16 05:40:28;;;;;;;;;;;21.00;99.90;;;;;;5048357;28;20642;-37
2022/08/16 05:42:53;;;;;;;;;;;21.10;99.90;;;;;;5043321;28;20377;-37
2022/08/16 05:45:19;;;;;;;;;;;21.10;99.90;;;;;;5050522;28;19924;-36
2022/08/16 05:47:44;;;;;;;;;;;21.10;99.90;;;;;;5051931;28;19916;-36
2022/08/16 05:50:11;;;;;;;;;;;21.10;99.90;;;;;;5046176;28;20428;-39
2022/08/16 05:52:36;;;;;;;;;;;21.10;99.90;;;;;;5045308;28;19999;-32
2022/08/16 05:55:02;;;;;;;;;;;21.10;99.90;;;;;;5047264;28;20012;-36
2022/08/16 05:57:28;;;;;;;;;;;21.10;99.90;;;;;;5051699;28;20368;-37
2022/08/16 05:59:53;;;;;;;;;;;21.20;99.90;;;;;;5051799;28;19954;-37
2022/08/16 06:02:20;;;;;;;;;;;21.30;99.90;;;;;;5050801;28;19920;-39
2022/08/16 06:04:46;;;;;;;;;;;21.40;99.90;;;;;;5049945;28;19935;-36
2022/08/16 06:07:12;;;;;;;;;;;21.40;99.90;;;;;;5049761;28;20273;-39
2022/08/16 06:09:38;;;;;;;;;;;21.50;99.90;;;;;;5047272;28;20100;-38
2022/08/16 06:12:03;;;;;;;;;;;21.50;99.90;;;;;;5045884;28;20143;-39
2022/08/16 06:14:29;;;;;;;;;;;21.60;99.90;;;;;;5047342;28;20285;-38
2022/08/16 06:16:56;;;;;;;;;;;21.60;99.90;;;;;;5043983;28;20016;-36
2022/08/16 06:19:21;;;;;;;;;;;21.60;99.90;;;;;;5046710;28;19913;-52
2022/08/16 06:21:47;;;;;;;;;;;21.70;99.90;;;;;;5044845;28;19914;-43
2022/08/16 06:24:12;;;;;;;;;;;21.70;99.90;;;;;;5045779;28;19921;-38
2022/08/16 06:26:38;;;;;;;;;;;21.80;99.90;;;;;;5048636;28;19913;-33
2022/08/16 06:29:04;;;;;;;;;;;21.80;99.90;;;;;;5049958;28;19999;-32
2022/08/16 06:31:30;;;;;;;;;;;21.80;99.90;;;;;;5049139;28;19917;-35
2022/08/16 06:33:55;;;;;;;;;;;21.80;99.90;;;;;;5049892;28;19920;-38
2022/08/16 06:36:22;;;;;;;;;;;21.90;99.90;;;;;;5048663;28;20175;-34
2022/08/16 06:38:49;;;;;;;;;;;21.90;99.90;;;;;;5048266;28;20003;-32
2022/08/16 06:41:15;;;;;;;;;;;21.90;99.90;;;;;;5040054;28;20395;-31
2022/08/16 06:43:40;;;;;;;;;;;22.00;99.90;;;;;;5046407;28;19956;-36
2022/08/16 06:46:09;;;;;;;;;;;22.10;99.90;;;;;;5048988;28;20335;-37
2022/08/16 06:48:35;;;;;;;;;;;22.20;99.90;;;;;;5037456;28;19913;-39
2022/08/16 06:51:02;;;;;;;;;;;22.20;99.90;;;;;;5047440;28;20011;-37
2022/08/16 06:53:28;;;;;;;;;;;22.30;99.90;;;;;;5046173;28;20361;-37
2022/08/16 06:55:57;;;;;;;;;;;22.40;99.90;;;;;;5039632;28;19955;-39
2022/08/16 06:58:23;;;;;;;;;;;22.40;99.90;;;;;;5045745;28;20396;-39
2022/08/16 07:00:48;;;;;;;;;;;22.50;99.90;;;;;;5036725;28;19913;-37
2022/08/16 07:03:14;;;;;;;;;;;22.60;99.90;;;;;;5041585;28;19913;-36
2022/08/16 07:05:40;;;;;;;;;;;22.60;99.90;;;;;;5039902;28;19909;-37
2022/08/16 07:08:05;;;;;;;;;;;22.70;99.90;;;;;;5047563;28;19912;-32
2022/08/16 07:10:31;;;;;;;;;;;22.70;99.90;;;;;;5049026;28;19987;-37
2022/08/16 07:12:56;;;;;;;;;;;22.80;99.90;;;;;;5046225;28;19919;-40
2022/08/16 07:15:22;;;;;;;;;;;22.80;99.90;;;;;;5046530;28;19913;-36
2022/08/16 07:17:48;;;;;;;;;;;22.80;99.90;;;;;;5043843;28;19963;-36
2022/08/16 07:20:14;;;;;;;;;;;22.90;99.90;;;;;;5038755;28;19909;-47
2022/08/16 07:22:40;;;;;;;;;;;23.00;99.90;;;;;;5046784;28;20253;-37
2022/08/16 07:25:09;;;;;;;;;;;23.20;99.90;;;;;;5046179;28;19920;-31
2022/08/16 07:27:35;;;;;;;;;;;23.30;99.90;;;;;;5044917;28;19939;-32
2022/08/16 07:30:03;;;;;;;;;;;23.40;99.90;;;;;;5048932;28;20357;-34
2022/08/16 07:32:28;;;;;;;;;;;23.50;99.90;;;;;;5041679;28;20356;-37
2022/08/16 07:34:54;;;;;;;;;;;23.50;99.90;;;;;;5043208;28;19945;-32
2022/08/16 07:37:19;;;;;;;;;;;23.60;99.90;;;;;;5047023;28;20368;-37
2022/08/16 07:39:45;;;;;;;;;;;23.70;99.90;;;;;;5040893;28;19921;-56
2022/08/16 07:42:11;;;;;;;;;;;23.80;99.90;;;;;;5040437;28;19920;-32
2022/08/16 07:44:36;;;;;;;;;;;23.80;99.90;;;;;;5032111;28;20458;-32
2022/08/16 07:47:02;;;;;;;;;;;23.90;99.90;;;;;;5042645;28;20423;-38
2022/08/16 07:49:27;;;;;;;;;;;24.00;99.90;;;;;;5043785;28;19948;-36
2022/08/16 07:51:53;;;;;;;;;;;24.10;99.90;;;;;;5046146;28;19916;-34
2022/08/16 07:54:19;;;;;;;;;;;24.10;99.90;;;;;;5046742;28;20011;-32
2022/08/16 07:56:44;;;;;;;;;;;24.10;99.90;;;;;;5037853;28;20414;-48
2022/08/16 07:59:10;;;;;;;;;;;24.20;99.90;;;;;;5039497;28;19913;-33
2022/08/16 08:01:37;;;;;;;;;;;24.30;99.90;;;;;;5038162;28;19982;-34
2022/08/16 08:04:03;;;;;;;;;;;24.30;99.90;;;;;;5033086;28;19925;-37
2022/08/16 08:06:29;;;;;;;;;;;24.40;99.90;;;;;;5034165;28;19913;-37
2022/08/16 08:08:55;;;;;;;;;;;24.40;99.90;;;;;;5039640;28;19974;-35
2022/08/16 08:11:21;;;;;;;;;;;24.50;99.90;;;;;;5040220;28;19919;-32
2022/08/16 08:13:47;;;;;;;;;;;24.50;99.90;;;;;;5038347;28;20027;-32
2022/08/16 08:16:13;;;;;;;;;;;24.60;99.90;;;;;;5037458;28;20471;-37
2022/08/16 08:18:39;;;;;;;;;;;24.70;99.90;;;;;;5038682;28;19913;-48
2022/08/16 08:21:06;;;;;;;;;;;24.80;99.90;;;;;;5036088;28;19912;-37
2022/08/16 08:23:35;;;;;;;;;;;24.80;99.90;;;;;;5037575;28;20466;-36
2022/08/16 08:26:00;;;;;;;;;;;24.90;99.90;;;;;;5039273;28;19917;-37
2022/08/16 08:28:26;;;;;;;;;;;25.00;99.90;;;;;;5037417;28;20268;-37
2022/08/16 08:30:51;;;;;;;;;;;25.00;99.90;;;;;;5038554;28;20013;-38
2022/08/16 08:33:17;;;;;;;;;;;25.10;99.90;;;;;;5040662;28;19913;-39
2022/08/16 08:36:01;;;;;;;;;;;25.30;99.90;;;;;;5038705;28;19921;-37
2022/08/16 08:38:29;;;;;;;;;;;25.40;99.90;;;;;;5039429;28;19921;-36
2022/08/16 08:40:55;;;;;;;;;;;25.60;99.90;;;;;;5040920;28;20384;-37
2022/08/16 08:43:21;;;;;;;;;;;25.70;99.90;;;;;;5040307;28;19924;-37
2022/08/16 08:45:47;;;;;;;;;;;25.90;99.90;;;;;;5042960;28;20356;-39
2022/08/16 08:48:15;;;;;;;;;;;26.00;99.90;;;;;;5042369;28;19920;-43
2022/08/16 08:50:41;;;;;;;;;;;26.40;99.90;;;;;;5041416;28;19940;-41
2022/08/16 08:53:08;;;;;;;;;;;26.50;99.90;;;;;;5045799;28;19998;-37
2022/08/16 08:55:34;;;;;;;;;;;26.50;99.90;;;;;;5044170;28;19919;-40
2022/08/16 08:57:59;;;;;;;;;;;26.70;99.90;;;;;;5043063;28;20003;-36
2022/08/16 09:00:26;;;;;;;;;;;26.90;99.90;;;;;;5044050;28;20027;-40
2022/08/16 09:02:52;;;;;;;;;;;27.10;99.90;;;;;;5041553;28;19939;-33
2022/08/16 09:05:18;;;;;;;;;;;27.20;99.90;;;;;;5041090;28;19956;-37
2022/08/16 09:07:44;;;;;;;;;;;27.30;99.90;;;;;;5042747;28;19913;-38
2022/08/16 09:10:10;;;;;;;;;;;27.40;99.90;;;;;;5041401;28;20335;-38
2022/08/16 09:12:37;;;;;;;;;;;27.50;99.90;;;;;;5043529;28;20292;-38
2022/08/16 09:15:03;;;;;;;;;;;27.70;99.90;;;;;;5042754;28;19921;-36
2022/08/16 09:17:29;;;;;;;;;;;27.90;99.90;;;;;;5043620;28;19917;-38
2022/08/16 09:19:55;;;;;;;;;;;28.00;99.90;;;;;;5043346;28;20429;-33
2022/08/16 09:22:25;;;;;;;;;;;28.20;99.90;;;;;;5039497;28;20363;-37
2022/08/16 09:24:50;;;;;;;;;;;28.50;99.90;;;;;;5037856;28;20462;-35
2022/08/16 09:27:16;;;;;;;;;;;28.70;99.70;;;;;;5037263;28;19913;-37
2022/08/16 09:29:42;;;;;;;;;;;28.90;99.60;;;;;;5032912;28;20381;-37
2022/08/16 09:32:08;;;;;;;;;;;29.20;98.80;;;;;;5037129;28;20397;-41
2022/08/16 09:34:33;;;;;;;;;;;29.30;98.80;;;;;;5037745;28;19947;-34
2022/08/16 09:36:59;;;;;;;;;;;29.60;98.70;;;;;;5044803;28;20377;-34
2022/08/16 09:39:24;;;;;;;;;;;29.80;98.40;;;;;;5040526;28;19921;-33
2022/08/16 09:41:51;;;;;;;;;;;29.70;98.20;;;;;;5042006;28;19921;-38
2022/08/16 09:44:19;;;;;;;;;;;29.60;98.20;;;;;;5039540;28;19921;-32
2022/08/16 09:46:45;;;;;;;;;;;29.60;98.20;;;;;;5043361;28;20307;-35
2022/08/16 09:49:11;;;;;;;;;;;29.60;98.20;;;;;;5050318;28;19912;-57
2022/08/16 09:51:37;;;;;;;;;;;29.70;98.00;;;;;;5046514;28;20408;-34
2022/08/16 09:54:03;;;;;;;;;;;29.80;97.70;;;;;;5048145;28;19917;-37
2022/08/16 09:56:30;;;;;;;;;;;29.70;97.70;;;;;;5045885;28;19913;-38
2022/08/16 09:58:56;;;;;;;;;;;29.50;97.70;;;;;;5050007;28;20546;-38
2022/08/16 10:01:23;;;;;;;;;;;29.60;98.00;;;;;;5044171;28;19966;-38
2022/08/16 10:03:50;;;;;;;;;;;29.60;97.90;;;;;;5041997;28;20381;-33
2022/08/16 10:06:16;;;;;;;;;;;29.50;97.80;;;;;;5040884;28;20276;-38
2022/08/16 10:08:41;;;;;;;;;;;29.40;97.70;;;;;;5041395;28;19967;-41
2022/08/16 10:13:51;;;;;;;;;;;29.30;97.80;;;;;;5043812;28;19959;-35
2022/08/16 10:16:16;;;;;;;;;;;29.30;98.00;;;;;;5049314;28;19913;-34
2022/08/16 10:18:42;;;;;;;;;;;29.30;98.20;;;;;;5047951;28;20313;-38
2022/08/16 10:21:08;;;;;;;;;;;29.20;98.40;;;;;;5050111;28;19915;-30
2022/08/16 10:23:35;;;;;;;;;;;29.10;98.50;;;;;;5049579;28;20399;-33
2022/08/16 10:26:00;;;;;;;;;;;29.10;98.30;;;;;;5048644;28;19972;-31
2022/08/16 10:28:27;;;;;;;;;;;29.10;98.40;;;;;;5047576;28;20440;-34
2022/08/16 10:30:52;;;;;;;;;;;29.20;98.40;;;;;;5045172;28;19955;-32
2022/08/16 10:33:18;;;;;;;;;;;29.40;98.50;;;;;;5048934;28;20377;-37
2022/08/16 10:35:44;;;;;;;;;;;29.60;98.30;;;;;;5048179;28;19923;-34
2022/08/16 10:38:11;;;;;;;;;;;29.80;98.10;;;;;;5042902;28;20125;-34
2022/08/16 10:40:38;;;;;;;;;;;30.00;98.10;;;;;;5042327;28;19917;-32
2022/08/16 10:43:03;;;;;;;;;;;30.10;97.60;;;;;;5035118;28;19920;-35
2022/08/16 10:45:29;;;;;;;;;;;30.30;97.40;;;;;;5043400;28;20346;-40
2022/08/16 10:47:56;;;;;;;;;;;30.40;97.30;;;;;;5041040;28;19913;-34
2022/08/16 10:50:21;;;;;;;;;;;30.40;97.20;;;;;;5041160;28;19939;-37
2022/08/16 10:52:47;;;;;;;;;;;30.40;97.50;;;;;;5045978;28;19917;-37
2022/08/16 10:55:12;;;;;;;;;;;30.40;97.20;;;;;;5045205;28;20007;-36
2022/08/16 10:57:38;;;;;;;;;;;30.40;97.30;;;;;;5045379;28;20205;-36
2022/08/16 11:00:11;;;;;;;;;;;30.40;97.30;;;;;;5041487;28;19928;-38
2022/08/16 11:02:37;;;;;;;;;;;30.20;97.30;;;;;;5033934;28;20832;-34
2022/08/16 11:05:04;;;;;;;;;;;30.10;97.10;;;;;;5033005;28;19924;-35
2022/08/16 11:07:29;;;;;;;;;;;29.90;97.10;;;;;;5040814;28;19928;-33
2022/08/16 11:09:57;;;;;;;;;;;29.70;97.30;;;;;;5032798;28;19913;-31
2022/08/16 11:12:22;;;;;;;;;;;29.40;97.50;;;;;;5038967;28;19928;-36
2022/08/16 11:14:48;;;;;;;;;;;29.10;98.10;;;;;;5041375;28;19913;-33
2022/08/16 11:17:13;;;;;;;;;;;28.80;98.20;;;;;;5043255;28;20296;-35
2022/08/16 11:19:41;;;;;;;;;;;28.70;98.20;;;;;;5048816;28;19920;-37
2022/08/16 11:22:07;;;;;;;;;;;28.60;98.50;;;;;;5044918;28;20004;-34
2022/08/16 11:24:33;;;;;;;;;;;28.50;98.60;;;;;;5042865;28;20015;-34
2022/08/16 11:26:59;;;;;;;;;;;28.50;98.90;;;;;;5037075;28;19920;-35
2022/08/16 11:29:24;;;;;;;;;;;28.80;98.60;;;;;;5044443;28;19986;-35
2022/08/16 11:31:50;;;;;;;;;;;29.10;98.70;;;;;;5043780;28;19966;-35
2022/08/16 11:34:16;;;;;;;;;;;29.30;98.40;;;;;;5040668;28;20433;-31
2022/08/16 11:36:41;;;;;;;;;;;29.30;98.40;;;;;;5040691;28;19913;-35
2022/08/16 11:39:07;;;;;;;;;;;29.40;98.50;;;;;;5048371;28;20156;-30
2022/08/16 11:41:34;;;;;;;;;;;29.60;98.20;;;;;;5045592;28;20369;-33
2022/08/16 11:44:00;;;;;;;;;;;29.60;97.90;;;;;;5041904;28;20387;-41
2022/08/16 11:46:26;;;;;;;;;;;29.60;98.10;;;;;;5029093;28;19913;-40
2022/08/16 11:48:52;;;;;;;;;;;29.70;98.20;;;;;;5026674;28;19964;-32
2022/08/16 11:51:18;;;;;;;;;;;29.80;97.80;;;;;;5029880;28;19920;-38
2022/08/16 11:53:43;;;;;;;;;;;29.90;97.00;;;;;;5035262;28;20292;-31
2022/08/16 11:56:09;;;;;;;;;;;29.90;97.00;;;;;;5029081;28;19919;-35
2022/08/16 11:58:38;;;;;;;;;;;29.90;97.20;;;;;;5031901;28;20397;-40
2022/08/16 12:01:04;;;;;;;;;;;29.90;97.50;;;;;;5031862;28;20324;-31
2022/08/16 12:03:32;;;;;;;;;;;30.00;97.50;;;;;;5040214;28;20430;-33
2022/08/16 12:06:01;;;;;;;;;;;30.10;97.10;;;;;;5032687;28;20404;-35
2022/08/16 12:08:27;;;;;;;;;;;30.20;96.90;;;;;;5031468;28;20793;-35
2022/08/16 12:10:54;;;;;;;;;;;30.40;96.40;;;;;;5033874;28;20473;-35
2022/08/16 12:13:19;;;;;;;;;;;30.30;96.60;;;;;;5039543;28;20003;-35
2022/08/16 12:15:45;;;;;;;;;;;30.20;96.10;;;;;;5040455;28;20008;-35
2022/08/16 12:18:10;;;;;;;;;;;30.10;95.80;;;;;;5031845;28;19920;-40
2022/08/16 12:20:37;;;;;;;;;;;29.80;96.00;;;;;;5026436;28;20357;-39
2022/08/16 12:23:03;;;;;;;;;;;29.50;96.60;;;;;;5028901;28;19967;-33
2022/08/16 12:25:32;;;;;;;;;;;29.30;96.90;;;;;;5030315;28;21549;-33
2022/08/16 12:27:58;;;;;;;;;;;29.10;97.10;;;;;;5030053;28;19917;-33
2022/08/16 12:30:27;;;;;;;;;;;28.90;97.20;;;;;;5036479;28;20043;-35
2022/08/16 12:32:53;;;;;;;;;;;28.80;97.60;;;;;;5031392;28;19912;-40
2022/08/16 12:35:20;;;;;;;;;;;28.60;97.30;;;;;;5032633;28;19921;-37
2022/08/16 12:37:46;;;;;;;;;;;28.50;97.20;;;;;;5030919;28;19920;-34
2022/08/16 12:40:14;;;;;;;;;;;28.40;97.30;;;;;;5042650;28;20400;-39
2022/08/16 12:42:40;;;;;;;;;;;28.40;97.00;;;;;;5029062;28;19920;-34
2022/08/16 12:45:08;;;;;;;;;;;28.40;97.10;;;;;;5032228;28;19967;-41
2022/08/16 12:50:18;;;;;;;;;;;28.30;97.20;;;;;;5036895;28;19990;-33
2022/08/16 12:52:44;;;;;;;;;;;28.30;97.30;;;;;;5038359;28;19913;-35
2022/08/16 12:55:10;;;;;;;;;;;28.20;97.00;;;;;;5040584;28;19927;-35
2022/08/16 12:57:36;;;;;;;;;;;28.20;97.20;;;;;;5032275;28;20174;-38
2022/08/16 13:00:03;;;;;;;;;;;28.10;97.10;;;;;;5031311;28;20384;-35
2022/08/16 13:02:28;;;;;;;;;;;28.00;97.40;;;;;;5034678;28;20467;-35
2022/08/16 13:04:54;;;;;;;;;;;28.00;97.40;;;;;;5032877;28;19925;-36
2022/08/16 13:07:19;;;;;;;;;;;28.10;97.70;;;;;;5034834;28;19944;-37
2022/08/16 13:09:54;;;;;;;;;;;28.30;97.90;;;;;;5032619;28;19935;-39
2022/08/16 13:12:23;;;;;;;;;;;28.50;97.40;;;;;;5042768;28;20019;-38
2022/08/16 13:14:49;;;;;;;;;;;28.60;97.20;;;;;;5037817;28;20004;-39
2022/08/16 13:17:18;;;;;;;;;;;28.80;96.80;;;;;;5047243;28;20347;-35
2022/08/16 13:19:44;;;;;;;;;;;28.80;96.90;;;;;;5044560;28;19921;-36
2022/08/16 13:22:10;;;;;;;;;;;28.90;96.90;;;;;;5044765;28;19917;-38
2022/08/16 13:24:35;;;;;;;;;;;29.00;96.70;;;;;;5040217;28;19971;-38
2022/08/16 13:27:01;;;;;;;;;;;29.20;96.70;;;;;;5048372;28;20727;-34
2022/08/16 13:29:26;;;;;;;;;;;29.40;96.80;;;;;;5046900;28;19917;-38
2022/08/16 13:31:52;;;;;;;;;;;29.70;95.90;;;;;;5038142;28;19913;-37
2022/08/16 13:34:17;;;;;;;;;;;29.90;95.40;;;;;;5050584;28;20408;-36
2022/08/16 13:36:43;;;;;;;;;;;30.10;95.20;;;;;;5049474;28;19912;-38
2022/08/16 13:39:08;;;;;;;;;;;30.10;95.20;;;;;;5037696;28;19959;-31
2022/08/16 13:41:34;;;;;;;;;;;29.70;95.50;;;;;;5046454;28;19913;-34
2022/08/16 13:44:01;;;;;;;;;;;29.40;96.10;;;;;;5042072;28;19916;-44
2022/08/16 13:46:27;;;;;;;;;;;29.30;96.10;;;;;;5046888;28;19921;-37
2022/08/16 13:48:53;;;;;;;;;;;28.90;96.50;;;;;;5041031;28;19932;-37
2022/08/16 13:51:19;;;;;;;;;;;28.60;97.00;;;;;;5046574;28;20312;-35
2022/08/16 13:53:45;;;;;;;;;;;28.60;97.30;;;;;;5047091;28;19913;-33
2022/08/16 13:56:11;;;;;;;;;;;28.80;97.10;;;;;;5050036;28;19920;-36
2022/08/16 13:58:36;;;;;;;;;;;29.10;97.00;;;;;;5046196;28;20280;-38
2022/08/16 14:01:02;;;;;;;;;;;29.30;96.80;;;;;;5041396;28;20008;-37
2022/08/16 14:03:27;;;;;;;;;;;29.60;96.30;;;;;;5042143;28;20369;-34
2022/08/16 14:08:38;;;;;;;;;;;29.60;96.00;;;;;;5038421;28;20292;-39
2022/08/16 14:11:04;;;;;;;;;;;29.30;96.50;;;;;;5036502;28;19913;-37
2022/08/16 14:13:30;;;;;;;;;;;29.10;96.70;;;;;;5045222;28;19920;-40
2022/08/16 14:15:56;;;;;;;;;;;29.00;96.70;;;;;;5046994;28;20377;-39
2022/08/16 14:18:40;;;;;;;;;;;28.90;96.60;;;;;;5046547;28;19952;-42